Time;durP1;ratioP1;P1;durP2;ratioP2;P2;SDS_P1;SDS_P2;PMS_P1;PMS_P2;Temp;Humidity;BMP_temperature;BMP_pressure;BME280_temperature;BME280_humidity;BME280_pressure;Samples;Min_cycle;Max_cycle;Signal;HPM_P1;HPM_P2
2022/03/26 00:00:27;;;;;;;;;;;21.10;24.80;;;;;;5162571;27;20397;-58
2022/03/26 00:02:53;;;;;;;;;;;21.20;24.70;;;;;;5162785;27;20033;-56
2022/03/26 00:05:19;;;;;;;;;;;21.00;25.00;;;;;;5168250;27;20033;-60
2022/03/26 00:07:45;;;;;;;;;;;21.20;24.80;;;;;;5162522;27;19922;-59
2022/03/26 00:10:11;;;;;;;;;;;21.00;25.10;;;;;;5162673;27;19929;-61
2022/03/26 00:12:37;;;;;;;;;;;21.20;24.80;;;;;;5167929;27;19939;-59
2022/03/26 00:15:04;;;;;;;;;;;21.00;25.20;;;;;;5159338;27;19927;-60
2022/03/26 00:17:30;;;;;;;;;;;21.10;25.10;;;;;;5166181;27;20349;-59
2022/03/26 00:19:56;;;;;;;;;;;21.00;25.20;;;;;;5162604;27;19926;-59
2022/03/26 00:22:22;;;;;;;;;;;21.20;25.00;;;;;;5165058;27;19969;-56
2022/03/26 00:24:48;;;;;;;;;;;21.00;25.10;;;;;;5171899;27;20021;-57
2022/03/26 00:27:14;;;;;;;;;;;21.00;25.10;;;;;;5166507;27;19962;-59
2022/03/26 00:29:39;;;;;;;;;;;21.10;25.00;;;;;;5166329;27;19931;-55
2022/03/26 00:32:06;;;;;;;;;;;21.00;25.10;;;;;;5152272;27;20373;-58
2022/03/26 00:34:32;;;;;;;;;;;21.20;24.90;;;;;;5161905;27;19929;-59
2022/03/26 00:36:58;;;;;;;;;;;20.90;25.10;;;;;;5171312;27;20298;-50
2022/03/26 00:39:24;;;;;;;;;;;21.20;24.80;;;;;;5166140;27;19930;-51
2022/03/26 00:41:50;;;;;;;;;;;20.90;25.10;;;;;;5165818;27;19953;-56
2022/03/26 00:44:16;;;;;;;;;;;21.20;24.80;;;;;;5171343;27;20480;-59
2022/03/26 00:46:45;;;;;;;;;;;20.90;25.20;;;;;;5165977;27;19929;-60
2022/03/26 00:49:12;;;;;;;;;;;21.20;24.90;;;;;;5166023;27;19922;-58
2022/03/26 00:51:37;;;;;;;;;;;21.00;25.20;;;;;;5168694;27;19933;-60
2022/03/26 00:54:03;;;;;;;;;;;21.30;24.90;;;;;;5163376;27;20381;-58
2022/03/26 00:56:29;;;;;;;;;;;20.90;25.30;;;;;;5167008;27;19930;-55
2022/03/26 00:58:55;;;;;;;;;;;21.10;25.10;;;;;;5168701;27;19931;-54
2022/03/26 01:01:21;;;;;;;;;;;21.00;25.20;;;;;;5165620;27;20009;-53
2022/03/26 01:03:47;;;;;;;;;;;21.10;25.00;;;;;;5170948;27;19966;-55
2022/03/26 01:06:14;;;;;;;;;;;21.10;24.90;;;;;;5165260;27;19923;-57
2022/03/26 01:08:40;;;;;;;;;;;21.20;24.80;;;;;;5165238;27;20350;-49
2022/03/26 01:11:06;;;;;;;;;;;21.10;24.80;;;;;;5166704;27;19968;-57
2022/03/26 01:13:34;;;;;;;;;;;21.20;24.60;;;;;;5164710;27;19927;-53
2022/03/26 01:16:01;;;;;;;;;;;20.90;24.80;;;;;;5165272;27;20006;-51
2022/03/26 01:18:26;;;;;;;;;;;21.10;24.70;;;;;;5170972;27;20025;-53
2022/03/26 01:20:52;;;;;;;;;;;20.90;24.80;;;;;;5164807;27;19987;-57
2022/03/26 01:23:19;;;;;;;;;;;21.20;24.60;;;;;;5170595;27;19933;-58
2022/03/26 01:25:45;;;;;;;;;;;20.90;24.90;;;;;;5164852;27;19978;-53
2022/03/26 01:28:11;;;;;;;;;;;21.20;24.60;;;;;;5163133;27;19922;-57
2022/03/26 01:30:37;;;;;;;;;;;21.10;24.70;;;;;;5167218;27;19929;-54
2022/03/26 01:33:03;;;;;;;;;;;21.00;24.80;;;;;;5163684;27;19948;-58
2022/03/26 01:35:29;;;;;;;;;;;21.20;24.60;;;;;;5165132;27;19923;-56
2022/03/26 01:37:54;;;;;;;;;;;21.00;24.70;;;;;;5170203;27;19923;-52
2022/03/26 01:40:20;;;;;;;;;;;21.20;24.50;;;;;;5164791;27;19922;-58
2022/03/26 01:42:46;;;;;;;;;;;20.90;24.80;;;;;;5170308;27;19977;-58
2022/03/26 01:45:12;;;;;;;;;;;21.20;24.50;;;;;;5164605;27;19930;-58
2022/03/26 01:47:38;;;;;;;;;;;20.90;24.80;;;;;;5161583;27;19923;-59
2022/03/26 01:50:04;;;;;;;;;;;21.20;24.50;;;;;;5150027;27;19987;-57
2022/03/26 01:52:30;;;;;;;;;;;20.80;24.90;;;;;;5164498;27;20412;-58
2022/03/26 01:54:56;;;;;;;;;;;21.10;24.60;;;;;;5164560;27;20189;-58
2022/03/26 01:57:22;;;;;;;;;;;21.00;24.70;;;;;;5169993;27;19975;-58
2022/03/26 01:59:48;;;;;;;;;;;21.10;24.60;;;;;;5164075;27;19936;-57
2022/03/26 02:02:15;;;;;;;;;;;21.10;24.60;;;;;;5169123;27;19923;-59
2022/03/26 02:04:41;;;;;;;;;;;21.20;24.60;;;;;;5164864;27;19923;-56
2022/03/26 02:07:06;;;;;;;;;;;21.10;24.70;;;;;;5160069;27;19932;-60
2022/03/26 02:09:35;;;;;;;;;;;21.20;24.50;;;;;;5169349;27;19930;-57
2022/03/26 02:12:01;;;;;;;;;;;21.00;24.70;;;;;;5164116;27;19933;-63
2022/03/26 02:14:27;;;;;;;;;;;21.20;24.50;;;;;;5164002;27;20423;-57
2022/03/26 02:16:53;;;;;;;;;;;21.00;24.70;;;;;;5169584;27;19941;-59
2022/03/26 02:19:20;;;;;;;;;;;21.10;24.60;;;;;;5163794;27;19929;-57
2022/03/26 02:21:49;;;;;;;;;;;21.00;24.60;;;;;;5163862;27;19923;-58
2022/03/26 02:24:14;;;;;;;;;;;21.10;24.50;;;;;;5166412;27;19923;-57
2022/03/26 02:26:40;;;;;;;;;;;21.10;24.50;;;;;;5161840;27;19966;-58
2022/03/26 02:29:07;;;;;;;;;;;21.20;24.30;;;;;;5169469;27;20029;-60
2022/03/26 02:31:33;;;;;;;;;;;20.90;24.50;;;;;;5163681;27;20621;-61
2022/03/26 02:33:59;;;;;;;;;;;21.30;24.20;;;;;;5163768;27;19933;-59
2022/03/26 02:36:25;;;;;;;;;;;20.90;24.50;;;;;;5169460;27;19965;-50
2022/03/26 02:38:50;;;;;;;;;;;21.20;24.10;;;;;;5163589;27;20304;-57
2022/03/26 02:41:16;;;;;;;;;;;20.90;24.40;;;;;;5144347;27;20131;-57
2022/03/26 02:43:42;;;;;;;;;;;21.30;24.10;;;;;;5164586;27;19926;-58
2022/03/26 02:46:08;;;;;;;;;;;20.90;24.30;;;;;;5162874;27;19927;-58
2022/03/26 02:48:35;;;;;;;;;;;21.10;24.10;;;;;;5168866;27;19927;-51
2022/03/26 02:51:01;;;;;;;;;;;21.10;24.20;;;;;;5163139;27;19927;-52
2022/03/26 02:53:27;;;;;;;;;;;21.20;24.10;;;;;;5163603;27;20103;-59
2022/03/26 02:55:52;;;;;;;;;;;21.00;24.40;;;;;;5168739;27;19929;-60
2022/03/26 02:58:18;;;;;;;;;;;21.20;24.10;;;;;;5163708;27;19922;-58
2022/03/26 03:00:44;;;;;;;;;;;21.10;24.40;;;;;;5161755;27;19993;-58
2022/03/26 03:03:10;;;;;;;;;;;21.00;24.50;;;;;;5165476;27;19923;-60
2022/03/26 03:05:36;;;;;;;;;;;21.10;24.40;;;;;;5163532;27;19927;-51
2022/03/26 03:08:02;;;;;;;;;;;21.00;24.50;;;;;;5168087;27;19935;-58
2022/03/26 03:10:28;;;;;;;;;;;21.10;24.40;;;;;;5145762;27;19974;-52
2022/03/26 03:12:53;;;;;;;;;;;21.00;24.40;;;;;;5163310;27;19966;-57
2022/03/26 03:15:19;;;;;;;;;;;21.20;24.30;;;;;;5168924;27;19930;-59
2022/03/26 03:17:46;;;;;;;;;;;21.10;24.40;;;;;;5162926;27;19969;-58
2022/03/26 03:20:12;;;;;;;;;;;21.20;24.20;;;;;;5159712;27;19929;-60
2022/03/26 03:22:38;;;;;;;;;;;21.00;24.40;;;;;;5167044;27;19931;-60
2022/03/26 03:25:04;;;;;;;;;;;21.30;24.00;;;;;;5163067;27;19923;-58
2022/03/26 03:27:30;;;;;;;;;;;20.90;24.40;;;;;;5164961;27;19923;-58
2022/03/26 03:29:55;;;;;;;;;;;21.30;24.00;;;;;;5166854;27;20030;-60
2022/03/26 03:32:21;;;;;;;;;;;20.90;24.40;;;;;;5163178;27;19929;-53
2022/03/26 03:34:47;;;;;;;;;;;21.20;24.10;;;;;;5168333;27;19930;-59
2022/03/26 03:37:13;;;;;;;;;;;20.90;24.40;;;;;;5162082;27;20371;-58
2022/03/26 03:39:38;;;;;;;;;;;21.20;24.10;;;;;;5159013;27;19923;-59
2022/03/26 03:42:04;;;;;;;;;;;20.90;24.30;;;;;;5168368;27;19927;-49
2022/03/26 03:44:30;;;;;;;;;;;21.10;24.10;;;;;;5162881;27;19927;-54
2022/03/26 03:46:56;;;;;;;;;;;21.10;24.10;;;;;;5163140;27;19929;-52
2022/03/26 03:49:22;;;;;;;;;;;21.10;24.10;;;;;;5168302;27;19934;-50
2022/03/26 03:51:47;;;;;;;;;;;21.20;24.00;;;;;;5162903;27;19923;-59
2022/03/26 03:54:14;;;;;;;;;;;21.00;24.20;;;;;;5168100;27;19967;-55
2022/03/26 03:56:39;;;;;;;;;;;21.10;24.10;;;;;;5162202;27;19971;-57
2022/03/26 03:59:05;;;;;;;;;;;20.80;24.40;;;;;;5163937;27;20315;-60
2022/03/26 04:01:31;;;;;;;;;;;21.10;24.00;;;;;;5172207;27;20213;-59
2022/03/26 04:03:57;;;;;;;;;;;21.00;24.10;;;;;;5166622;27;19931;-57
2022/03/26 04:06:26;;;;;;;;;;;21.20;23.90;;;;;;5166639;27;19927;-60
2022/03/26 04:08:51;;;;;;;;;;;21.10;24.20;;;;;;5172485;27;19922;-56
2022/03/26 04:11:17;;;;;;;;;;;21.00;24.30;;;;;;5147718;27;19975;-58
2022/03/26 04:13:43;;;;;;;;;;;21.20;24.10;;;;;;5171421;27;19937;-58
2022/03/26 04:16:09;;;;;;;;;;;20.90;24.30;;;;;;5162346;27;19926;-58
2022/03/26 04:18:34;;;;;;;;;;;21.10;24.10;;;;;;5165678;27;19923;-59
2022/03/26 04:21:00;;;;;;;;;;;21.00;24.20;;;;;;5171946;27;20415;-50
2022/03/26 04:23:26;;;;;;;;;;;21.30;24.00;;;;;;5166497;27;19955;-60
2022/03/26 04:25:52;;;;;;;;;;;21.00;24.30;;;;;;5166087;27;20525;-50
2022/03/26 04:28:18;;;;;;;;;;;21.20;24.00;;;;;;5171758;27;19935;-58
2022/03/26 04:30:43;;;;;;;;;;;20.80;24.40;;;;;;5166141;27;19927;-58
2022/03/26 04:33:09;;;;;;;;;;;21.10;24.20;;;;;;5169957;27;19923;-50
2022/03/26 04:35:35;;;;;;;;;;;21.20;24.00;;;;;;5144241;27;19930;-58
2022/03/26 04:38:01;;;;;;;;;;;21.10;24.10;;;;;;5166082;27;19923;-61
2022/03/26 04:40:28;;;;;;;;;;;21.20;24.00;;;;;;5171485;27;19953;-59
2022/03/26 04:42:54;;;;;;;;;;;21.00;24.20;;;;;;5166319;27;19927;-54
2022/03/26 04:45:20;;;;;;;;;;;21.20;23.90;;;;;;5147492;27;20388;-59
2022/03/26 04:47:46;;;;;;;;;;;21.00;24.20;;;;;;5171376;27;19930;-56
2022/03/26 04:50:12;;;;;;;;;;;21.20;24.00;;;;;;5146842;27;19944;-58
2022/03/26 04:52:38;;;;;;;;;;;21.00;24.20;;;;;;5165226;27;20263;-56
2022/03/26 04:55:04;;;;;;;;;;;21.10;24.10;;;;;;5167362;27;20009;-56
2022/03/26 04:57:31;;;;;;;;;;;21.20;24.10;;;;;;5165504;27;19923;-59
2022/03/26 04:59:57;;;;;;;;;;;20.90;24.50;;;;;;5171138;27;20051;-57
2022/03/26 05:02:23;;;;;;;;;;;21.20;24.10;;;;;;5165512;27;19923;-58
2022/03/26 05:04:49;;;;;;;;;;;21.00;24.30;;;;;;5165469;27;19937;-56
2022/03/26 05:09:59;;;;;;;;;;;20.80;24.50;;;;;;5164120;27;19929;-57
2022/03/26 05:12:26;;;;;;;;;;;21.10;24.30;;;;;;5142840;27;20118;-60
2022/03/26 05:14:52;;;;;;;;;;;21.10;24.30;;;;;;5170719;27;20483;-60
2022/03/26 05:17:18;;;;;;;;;;;21.20;24.20;;;;;;5165292;27;19938;-59
2022/03/26 05:19:43;;;;;;;;;;;20.90;24.50;;;;;;5168056;27;19938;-58
2022/03/26 05:22:09;;;;;;;;;;;21.20;24.20;;;;;;5168528;27;20304;-49
2022/03/26 05:24:35;;;;;;;;;;;21.00;24.40;;;;;;5165121;27;20374;-57
2022/03/26 05:27:01;;;;;;;;;;;21.20;24.30;;;;;;5170536;27;19985;-58
2022/03/26 05:29:27;;;;;;;;;;;21.00;24.30;;;;;;5162105;27;19953;-56
2022/03/26 05:31:53;;;;;;;;;;;21.00;24.40;;;;;;5162594;27;19986;-55
2022/03/26 05:34:19;;;;;;;;;;;21.20;24.30;;;;;;5170304;27;19923;-57
2022/03/26 05:36:45;;;;;;;;;;;21.20;24.20;;;;;;5164985;27;20011;-55
2022/03/26 05:39:11;;;;;;;;;;;21.00;24.30;;;;;;5163120;27;19933;-57
2022/03/26 05:41:36;;;;;;;;;;;21.20;24.20;;;;;;5170338;27;19938;-58
2022/03/26 05:44:02;;;;;;;;;;;20.90;24.50;;;;;;5164461;27;20377;-57
2022/03/26 05:46:28;;;;;;;;;;;21.10;24.30;;;;;;5169482;27;19923;-58
2022/03/26 05:48:54;;;;;;;;;;;20.90;24.40;;;;;;5160469;27;19923;-58
2022/03/26 05:51:19;;;;;;;;;;;21.10;24.20;;;;;;5163914;27;19960;-53
2022/03/26 05:53:45;;;;;;;;;;;21.20;24.10;;;;;;5170359;27;19926;-59
2022/03/26 05:56:11;;;;;;;;;;;20.80;24.50;;;;;;5164323;27;19923;-60
2022/03/26 05:58:37;;;;;;;;;;;21.20;24.20;;;;;;5164429;27;19922;-55
2022/03/26 06:01:03;;;;;;;;;;;20.90;24.40;;;;;;5169797;27;19922;-57
2022/03/26 06:03:28;;;;;;;;;;;21.10;24.20;;;;;;5164387;27;20358;-53
2022/03/26 06:05:54;;;;;;;;;;;21.10;24.20;;;;;;5168153;27;20290;-58
2022/03/26 06:08:20;;;;;;;;;;;21.10;24.20;;;;;;5160743;27;19923;-51
2022/03/26 06:10:45;;;;;;;;;;;20.90;24.40;;;;;;5164215;27;19938;-58
2022/03/26 06:13:11;;;;;;;;;;;21.10;24.30;;;;;;5169729;27;19930;-53
2022/03/26 06:15:37;;;;;;;;;;;21.10;24.20;;;;;;5164368;27;19930;-59
2022/03/26 06:18:03;;;;;;;;;;;21.10;24.30;;;;;;5145467;27;19991;-58
2022/03/26 06:20:29;;;;;;;;;;;21.00;24.30;;;;;;5168766;27;20029;-59
2022/03/26 06:22:55;;;;;;;;;;;21.00;24.40;;;;;;5163626;27;19922;-52
2022/03/26 06:25:20;;;;;;;;;;;21.10;24.20;;;;;;5166366;27;19962;-57
2022/03/26 06:27:47;;;;;;;;;;;21.20;24.20;;;;;;5162286;27;20555;-59
2022/03/26 06:30:13;;;;;;;;;;;21.10;24.20;;;;;;5163691;27;20427;-59
2022/03/26 06:32:38;;;;;;;;;;;21.30;24.10;;;;;;5169421;27;19927;-59
2022/03/26 06:35:05;;;;;;;;;;;20.90;24.40;;;;;;5163832;27;20396;-59
2022/03/26 06:37:30;;;;;;;;;;;21.20;24.20;;;;;;5163861;27;20157;-54
2022/03/26 06:39:56;;;;;;;;;;;21.10;24.20;;;;;;5169006;27;20539;-59
2022/03/26 06:42:22;;;;;;;;;;;21.20;24.20;;;;;;5163329;27;20305;-58
2022/03/26 06:44:48;;;;;;;;;;;21.10;24.30;;;;;;5164249;27;19923;-56
2022/03/26 06:47:14;;;;;;;;;;;21.00;24.50;;;;;;5164637;27;19927;-50
2022/03/26 06:49:41;;;;;;;;;;;20.90;24.50;;;;;;5144976;27;19929;-59
2022/03/26 06:52:07;;;;;;;;;;;21.20;24.40;;;;;;5169221;27;19975;-57
2022/03/26 06:54:33;;;;;;;;;;;21.00;24.50;;;;;;5163473;27;19923;-50
2022/03/26 06:56:59;;;;;;;;;;;21.20;24.40;;;;;;5163432;27;20298;-58
2022/03/26 06:59:25;;;;;;;;;;;21.00;24.60;;;;;;5168775;27;20362;-56
2022/03/26 07:01:51;;;;;;;;;;;21.20;24.40;;;;;;5161468;27;19929;-58
2022/03/26 07:04:17;;;;;;;;;;;20.90;24.70;;;;;;5161683;27;19923;-55
2022/03/26 07:06:43;;;;;;;;;;;21.10;24.40;;;;;;5167604;27;19986;-59
2022/03/26 07:09:08;;;;;;;;;;;21.00;24.60;;;;;;5163234;27;19926;-51
2022/03/26 07:11:34;;;;;;;;;;;21.20;24.30;;;;;;5168778;27;20358;-58
2022/03/26 07:14:00;;;;;;;;;;;21.00;24.50;;;;;;5144435;27;20276;-56
2022/03/26 07:16:25;;;;;;;;;;;21.20;24.30;;;;;;5144519;27;20232;-57
2022/03/26 07:18:51;;;;;;;;;;;21.00;24.60;;;;;;5168830;27;19923;-59
2022/03/26 07:21:17;;;;;;;;;;;21.20;24.30;;;;;;5159605;27;19922;-53
2022/03/26 07:23:43;;;;;;;;;;;21.20;24.40;;;;;;5161850;27;19934;-58
2022/03/26 07:26:09;;;;;;;;;;;21.00;24.40;;;;;;5168592;27;19927;-58
2022/03/26 07:28:34;;;;;;;;;;;21.00;24.50;;;;;;5163506;27;19937;-58
2022/03/26 07:31:00;;;;;;;;;;;21.20;24.30;;;;;;5171196;27;20380;-57
2022/03/26 07:33:27;;;;;;;;;;;21.10;24.50;;;;;;5167430;27;20358;-58
2022/03/26 07:35:53;;;;;;;;;;;21.20;24.30;;;;;;5167369;27;20013;-56
2022/03/26 07:38:18;;;;;;;;;;;21.20;24.40;;;;;;5171630;27;19949;-54
2022/03/26 07:40:44;;;;;;;;;;;21.00;24.60;;;;;;5163275;27;19930;-56
2022/03/26 07:43:10;;;;;;;;;;;21.20;24.30;;;;;;5167147;27;19988;-58
2022/03/26 07:45:36;;;;;;;;;;;20.90;24.50;;;;;;5172589;27;20373;-60
2022/03/26 07:48:02;;;;;;;;;;;21.20;24.20;;;;;;5167309;27;20289;-60
2022/03/26 07:50:27;;;;;;;;;;;20.90;24.50;;;;;;5172407;27;20326;-58
2022/03/26 07:52:53;;;;;;;;;;;21.30;24.20;;;;;;5167021;27;19923;-59
2022/03/26 07:55:20;;;;;;;;;;;21.00;24.40;;;;;;5166638;27;19931;-61
2022/03/26 07:57:46;;;;;;;;;;;21.20;24.10;;;;;;5169425;27;20426;-58
2022/03/26 08:00:12;;;;;;;;;;;21.10;24.20;;;;;;5164672;27;19926;-61
2022/03/26 08:02:38;;;;;;;;;;;21.20;24.10;;;;;;5166911;27;20547;-59
2022/03/26 08:05:04;;;;;;;;;;;21.00;24.30;;;;;;5153451;27;19926;-57
2022/03/26 08:07:30;;;;;;;;;;;21.10;24.20;;;;;;5166559;27;19933;-54
2022/03/26 08:09:56;;;;;;;;;;;21.20;24.20;;;;;;5172036;27;19922;-58
2022/03/26 08:12:22;;;;;;;;;;;21.00;24.40;;;;;;5166941;27;19923;-57
2022/03/26 08:14:48;;;;;;;;;;;21.30;24.10;;;;;;5166413;27;19926;-60
2022/03/26 08:17:14;;;;;;;;;;;20.90;24.50;;;;;;5168093;27;19923;-56
2022/03/26 08:19:40;;;;;;;;;;;21.10;24.20;;;;;;5165925;27;19929;-58
2022/03/26 08:22:06;;;;;;;;;;;20.90;24.50;;;;;;5166733;27;19922;-58
2022/03/26 08:24:32;;;;;;;;;;;21.20;24.30;;;;;;5171992;27;19927;-57
2022/03/26 08:26:57;;;;;;;;;;;21.00;24.50;;;;;;5166369;27;19949;-61
2022/03/26 08:29:23;;;;;;;;;;;21.30;24.10;;;;;;5169065;27;19922;-57
2022/03/26 08:31:49;;;;;;;;;;;21.00;24.50;;;;;;5169158;27;19974;-58
2022/03/26 08:34:15;;;;;;;;;;;21.20;24.30;;;;;;5128696;27;19923;-57
2022/03/26 08:36:40;;;;;;;;;;;21.10;24.40;;;;;;5149813;27;19922;-60
2022/03/26 08:39:06;;;;;;;;;;;21.20;24.30;;;;;;5166385;27;20330;-59
2022/03/26 08:41:32;;;;;;;;;;;21.00;24.60;;;;;;5165495;27;19927;-60
2022/03/26 08:43:58;;;;;;;;;;;21.10;24.30;;;;;;5171449;27;19926;-60
2022/03/26 08:46:23;;;;;;;;;;;21.10;24.30;;;;;;5165930;27;20422;-59
2022/03/26 08:48:49;;;;;;;;;;;21.10;24.20;;;;;;5148206;27;19923;-53
2022/03/26 08:51:15;;;;;;;;;;;21.10;24.10;;;;;;5170711;27;19926;-52
2022/03/26 08:53:41;;;;;;;;;;;21.10;24.30;;;;;;5162782;27;19954;-56
2022/03/26 08:56:07;;;;;;;;;;;21.10;24.20;;;;;;5150959;27;20344;-56
2022/03/26 08:58:33;;;;;;;;;;;21.20;24.20;;;;;;5165876;27;19933;-49
2022/03/26 09:00:59;;;;;;;;;;;21.10;24.30;;;;;;5165583;27;20867;-61
2022/03/26 09:03:25;;;;;;;;;;;21.20;24.20;;;;;;5170993;27;19930;-58
2022/03/26 09:05:50;;;;;;;;;;;21.00;24.30;;;;;;5165530;27;19930;-59
2022/03/26 09:08:16;;;;;;;;;;;21.20;24.00;;;;;;5165597;27;20014;-59
2022/03/26 09:10:42;;;;;;;;;;;21.10;24.30;;;;;;5169980;27;19970;-61
2022/03/26 09:13:08;;;;;;;;;;;21.20;24.00;;;;;;5161533;27;20015;-56
2022/03/26 09:15:34;;;;;;;;;;;21.20;24.10;;;;;;5170596;27;19923;-57
2022/03/26 09:18:00;;;;;;;;;;;21.00;24.20;;;;;;5146641;27;20365;-59
2022/03/26 09:20:26;;;;;;;;;;;21.30;23.90;;;;;;5165016;27;19926;-54
2022/03/26 09:22:52;;;;;;;;;;;21.10;24.20;;;;;;5170569;27;20013;-60
2022/03/26 09:25:19;;;;;;;;;;;21.20;24.10;;;;;;5163149;27;20386;-57
2022/03/26 09:27:44;;;;;;;;;;;21.00;24.30;;;;;;5165094;27;20510;-61
2022/03/26 09:30:10;;;;;;;;;;;21.20;24.20;;;;;;5168248;27;19922;-58
2022/03/26 09:32:36;;;;;;;;;;;20.90;24.40;;;;;;5162369;27;20362;-61
2022/03/26 09:35:02;;;;;;;;;;;21.30;24.10;;;;;;5170725;27;19980;-54
2022/03/26 09:37:28;;;;;;;;;;;21.00;24.40;;;;;;5165304;27;20362;-52
2022/03/26 09:39:54;;;;;;;;;;;21.20;24.30;;;;;;5164775;27;19926;-60
2022/03/26 09:42:23;;;;;;;;;;;21.20;24.50;;;;;;5170171;27;19927;-55
2022/03/26 09:44:49;;;;;;;;;;;21.20;24.60;;;;;;5164632;27;19929;-56
2022/03/26 09:47:15;;;;;;;;;;;21.10;24.50;;;;;;5164261;27;20006;-53
2022/03/26 09:49:40;;;;;;;;;;;21.10;24.50;;;;;;5166030;27;19926;-60
2022/03/26 09:52:06;;;;;;;;;;;21.20;24.60;;;;;;5163553;27;20298;-57
2022/03/26 09:54:33;;;;;;;;;;;21.00;24.90;;;;;;5166893;27;19971;-58
2022/03/26 09:56:58;;;;;;;;;;;21.10;24.80;;;;;;5167473;27;20359;-61
2022/03/26 09:59:24;;;;;;;;;;;21.20;24.80;;;;;;5164868;27;19960;-57
2022/03/26 10:01:50;;;;;;;;;;;21.10;25.10;;;;;;5170021;27;19923;-57
2022/03/26 10:04:16;;;;;;;;;;;21.30;24.80;;;;;;5164490;27;19931;-58
2022/03/26 10:06:49;;;;;;;;;;;21.20;25.00;;;;;;5162894;27;19927;-55
2022/03/26 10:09:24;;;;;;;;;;;21.20;24.90;;;;;;5166255;27;19974;-61
2022/03/26 10:11:57;;;;;;;;;;;21.10;24.90;;;;;;5164465;27;19922;-58
2022/03/26 10:14:23;;;;;;;;;;;21.20;24.90;;;;;;5164555;27;20021;-53
2022/03/26 10:16:52;;;;;;;;;;;21.10;25.00;;;;;;5169687;27;19922;-61
2022/03/26 10:19:21;;;;;;;;;;;21.20;25.00;;;;;;5164457;27;19930;-50
2022/03/26 10:21:49;;;;;;;;;;;21.10;25.30;;;;;;5163989;27;19922;-59
2022/03/26 10:24:15;;;;;;;;;;;21.20;25.00;;;;;;5169355;27;19981;-59
2022/03/26 10:26:40;;;;;;;;;;;21.20;25.00;;;;;;5160218;27;20308;-53
2022/03/26 10:29:06;;;;;;;;;;;21.00;25.20;;;;;;5149508;27;19946;-61
2022/03/26 10:34:19;;;;;;;;;;;21.30;24.90;;;;;;5163935;27;19975;-60
2022/03/26 10:36:48;;;;;;;;;;;21.20;24.90;;;;;;5169462;27;19926;-58
2022/03/26 10:39:20;;;;;;;;;;;21.30;24.80;;;;;;5163942;27;19929;-57
2022/03/26 10:41:46;;;;;;;;;;;21.10;25.10;;;;;;5163366;27;19927;-61
2022/03/26 10:44:13;;;;;;;;;;;21.30;25.10;;;;;;5167031;27;20365;-59
2022/03/26 10:46:42;;;;;;;;;;;21.20;25.20;;;;;;5160669;27;19922;-60
2022/03/26 10:49:08;;;;;;;;;;;21.30;25.20;;;;;;5163818;27;20266;-60
2022/03/26 10:51:34;;;;;;;;;;;21.30;25.30;;;;;;5169051;27;19923;-62
2022/03/26 10:54:01;;;;;;;;;;;21.20;25.30;;;;;;5163617;27;19929;-60
2022/03/26 10:56:27;;;;;;;;;;;21.30;25.20;;;;;;5148679;27;19970;-59
2022/03/26 10:58:53;;;;;;;;;;;21.30;25.20;;;;;;5165531;27;19927;-59
2022/03/26 11:01:19;;;;;;;;;;;21.20;25.20;;;;;;5162905;27;19922;-61
2022/03/26 11:03:44;;;;;;;;;;;21.30;25.30;;;;;;5164962;27;19971;-60
2022/03/26 11:06:10;;;;;;;;;;;21.30;25.30;;;;;;5162014;27;19929;-60
2022/03/26 11:08:36;;;;;;;;;;;21.30;25.20;;;;;;5163210;27;20376;-61
2022/03/26 11:11:05;;;;;;;;;;;21.40;25.00;;;;;;5168850;27;20377;-60
2022/03/26 11:13:31;;;;;;;;;;;21.40;24.90;;;;;;5163295;27;19982;-59
2022/03/26 11:16:02;;;;;;;;;;;21.40;25.00;;;;;;5163433;27;20041;-56
2022/03/26 11:18:39;;;;;;;;;;;21.40;25.10;;;;;;5150090;27;20036;-56
2022/03/26 11:21:22;;;;;;;;;;;21.30;25.10;;;;;;5142702;27;19970;-59
2022/03/26 11:23:51;;;;;;;;;;;21.30;24.90;;;;;;5141824;27;19927;-58
2022/03/26 11:26:20;;;;;;;;;;;21.40;24.70;;;;;;5168657;27;19927;-58
2022/03/26 11:29:05;;;;;;;;;;;21.40;24.50;;;;;;5163207;27;19927;-56
2022/03/26 11:31:46;;;;;;;;;;;21.40;24.40;;;;;;5163043;27;20582;-58
2022/03/26 11:34:12;;;;;;;;;;;21.50;24.00;;;;;;5168315;27;20357;-59
2022/03/26 11:36:37;;;;;;;;;;;21.50;23.80;;;;;;5163006;27;19930;-57
2022/03/26 11:39:10;;;;;;;;;;;21.50;23.80;;;;;;5165075;27;19979;-59
2022/03/26 11:41:35;;;;;;;;;;;21.60;23.60;;;;;;5164025;27;20364;-59
2022/03/26 11:44:03;;;;;;;;;;;21.50;23.70;;;;;;5162945;27;19970;-61
2022/03/26 11:52:15;;;;;;;;;;;21.60;23.30;;;;;;5162884;27;19986;-59
2022/03/26 11:54:41;;;;;;;;;;;21.60;23.30;;;;;;5162863;27;19930;-58
2022/03/26 11:57:27;;;;;;;;;;;21.60;23.20;;;;;;5168170;27;19926;-61
2022/03/26 11:59:53;;;;;;;;;;;21.70;22.60;;;;;;5158258;27;19923;-59
2022/03/26 12:02:23;;;;;;;;;;;21.70;22.20;;;;;;5164666;27;20313;-57
2022/03/26 12:04:52;;;;;;;;;;;21.80;21.80;;;;;;5168163;27;20026;-61
2022/03/26 12:07:19;;;;;;;;;;;21.80;21.70;;;;;;5162896;27;20322;-61
2022/03/26 12:09:45;;;;;;;;;;;21.80;21.70;;;;;;5132457;27;19929;-60
2022/03/26 12:12:15;;;;;;;;;;;21.80;21.80;;;;;;5162598;27;19982;-62
2022/03/26 12:14:59;;;;;;;;;;;21.80;22.20;;;;;;5162308;27;19927;-59
2022/03/26 12:17:41;;;;;;;;;;;21.80;22.20;;;;;;5166218;27;20022;-58
2022/03/26 12:20:20;;;;;;;;;;;21.80;21.90;;;;;;5165703;27;20390;-61
2022/03/26 12:22:48;;;;;;;;;;;21.80;21.40;;;;;;5166490;27;19929;-60
2022/03/26 12:25:16;;;;;;;;;;;21.80;21.40;;;;;;5171915;27;19986;-60
2022/03/26 12:27:43;;;;;;;;;;;21.80;21.50;;;;;;5166322;27;19923;-62
2022/03/26 12:30:09;;;;;;;;;;;21.80;21.10;;;;;;5166295;27;19923;-60
2022/03/26 12:32:34;;;;;;;;;;;21.90;20.90;;;;;;5171867;27;19966;-61
2022/03/26 12:35:05;;;;;;;;;;;21.80;21.00;;;;;;5164813;27;19935;-60
2022/03/26 12:37:31;;;;;;;;;;;21.90;20.80;;;;;;5162451;27;19931;-58
2022/03/26 12:39:56;;;;;;;;;;;21.90;20.80;;;;;;5171557;27;19949;-59
2022/03/26 12:42:23;;;;;;;;;;;21.90;20.50;;;;;;5166262;27;19923;-59
2022/03/26 12:44:49;;;;;;;;;;;22.00;20.60;;;;;;5170187;27;19945;-57
2022/03/26 12:47:18;;;;;;;;;;;21.90;21.10;;;;;;5167791;27;20379;-60
2022/03/26 12:49:44;;;;;;;;;;;22.00;21.50;;;;;;5165996;27;20304;-60
2022/03/26 12:52:10;;;;;;;;;;;22.10;21.40;;;;;;5171209;27;19970;-58
2022/03/26 12:54:36;;;;;;;;;;;22.20;21.50;;;;;;5162241;27;20434;-60
2022/03/26 12:57:01;;;;;;;;;;;22.10;21.50;;;;;;5163646;27;20013;-61
2022/03/26 12:59:28;;;;;;;;;;;22.20;21.20;;;;;;5171153;27;19930;-59
2022/03/26 13:01:57;;;;;;;;;;;22.30;21.00;;;;;;5165563;27;19963;-59
2022/03/26 13:04:23;;;;;;;;;;;22.30;21.00;;;;;;5165711;27;20385;-61
2022/03/26 13:06:55;;;;;;;;;;;22.30;20.80;;;;;;5171056;27;19930;-58
2022/03/26 13:09:21;;;;;;;;;;;22.30;20.70;;;;;;5165368;27;19938;-59
2022/03/26 13:11:51;;;;;;;;;;;22.30;20.50;;;;;;5169777;27;20097;-60
2022/03/26 13:14:18;;;;;;;;;;;22.30;20.50;;;;;;5161664;27;20297;-60
2022/03/26 13:16:44;;;;;;;;;;;22.30;20.60;;;;;;5165359;27;19952;-59
2022/03/26 13:19:11;;;;;;;;;;;22.30;20.60;;;;;;5152297;27;19971;-59
2022/03/26 13:21:41;;;;;;;;;;;22.30;20.40;;;;;;5165122;27;20279;-59
2022/03/26 13:24:07;;;;;;;;;;;22.30;20.40;;;;;;5165088;27;19933;-57
2022/03/26 13:26:49;;;;;;;;;;;22.40;20.30;;;;;;5170670;27;20005;-59
2022/03/26 13:29:18;;;;;;;;;;;22.30;20.50;;;;;;5164605;27;19923;-58
2022/03/26 13:31:54;;;;;;;;;;;22.30;20.50;;;;;;5161655;27;20184;-59
2022/03/26 13:34:23;;;;;;;;;;;22.40;20.40;;;;;;5169081;27;19929;-59
2022/03/26 13:36:49;;;;;;;;;;;22.50;20.30;;;;;;5164972;27;19922;-58
2022/03/26 13:39:15;;;;;;;;;;;22.50;20.20;;;;;;5164844;27;20393;-61
2022/03/26 13:41:41;;;;;;;;;;;22.50;20.30;;;;;;5170228;27;19922;-59
2022/03/26 13:44:07;;;;;;;;;;;22.50;20.30;;;;;;5164670;27;19923;-58
2022/03/26 13:46:34;;;;;;;;;;;22.40;20.40;;;;;;5170251;27;19960;-61
2022/03/26 13:49:00;;;;;;;;;;;22.40;20.30;;;;;;5163886;27;20005;-59
2022/03/26 13:51:29;;;;;;;;;;;22.40;20.20;;;;;;5160723;27;19937;-61
2022/03/26 13:53:55;;;;;;;;;;;22.50;20.20;;;;;;5170013;27;19926;-59
2022/03/26 13:56:25;;;;;;;;;;;22.50;20.00;;;;;;5164458;27;19967;-59
2022/03/26 13:58:51;;;;;;;;;;;22.50;19.90;;;;;;5164713;27;19926;-61
2022/03/26 14:01:17;;;;;;;;;;;22.50;19.80;;;;;;5169952;27;20487;-61
2022/03/26 14:03:43;;;;;;;;;;;22.40;19.60;;;;;;5164196;27;19927;-58
2022/03/26 14:06:08;;;;;;;;;;;22.50;19.50;;;;;;5167168;27;20922;-58
2022/03/26 14:08:35;;;;;;;;;;;22.50;19.50;;;;;;5145311;27;19926;-61
2022/03/26 14:11:01;;;;;;;;;;;22.50;19.50;;;;;;5143432;27;20404;-59
2022/03/26 14:13:27;;;;;;;;;;;22.50;19.60;;;;;;5169581;27;19922;-59
2022/03/26 14:15:53;;;;;;;;;;;22.50;19.60;;;;;;5164239;27;19933;-60
2022/03/26 14:18:19;;;;;;;;;;;22.60;19.50;;;;;;5164210;27;19962;-60
2022/03/26 14:20:45;;;;;;;;;;;22.60;19.50;;;;;;5169588;27;19922;-61
2022/03/26 14:23:11;;;;;;;;;;;22.50;19.60;;;;;;5164285;27;20050;-59